sensor_id;sensor_type;location;lat;lon;timestamp;temperature;humidity
46364;DHT22;32071;49.036;9.344;2023-05-29T00:02:07;14.90;92.90
46364;DHT22;32071;49.036;9.344;2023-05-29T00:04:32;14.90;93.20
46364;DHT22;32071;49.036;9.344;2023-05-29T00:06:58;14.90;93.10
46364;DHT22;32071;49.036;9.344;2023-05-29T00:09:24;14.90;93.10
46364;DHT22;32071;49.036;9.344;2023-05-29T00:11:50;14.90;93.00
46364;DHT22;32071;49.036;9.344;2023-05-29T00:14:18;14.90;93.10
46364;DHT22;32071;49.036;9.344;2023-05-29T00:16:45;14.90;93.10
46364;DHT22;32071;49.036;9.344;2023-05-29T00:19:12;14.90;93.20
46364;DHT22;32071;49.036;9.344;2023-05-29T00:21:39;14.90;93.40
46364;DHT22;32071;49.036;9.344;2023-05-29T00:24:05;14.80;93.10
46364;DHT22;32071;49.036;9.344;2023-05-29T00:26:30;14.80;93.20
46364;DHT22;32071;49.036;9.344;2023-05-29T00:28:56;14.90;92.50
46364;DHT22;32071;49.036;9.344;2023-05-29T00:31:21;15.00;92.40
46364;DHT22;32071;49.036;9.344;2023-05-29T00:33:48;15.00;92.70
46364;DHT22;32071;49.036;9.344;2023-05-29T00:36:13;15.10;93.10
46364;DHT22;32071;49.036;9.344;2023-05-29T00:38:39;15.00;93.10
46364;DHT22;32071;49.036;9.344;2023-05-29T00:41:05;14.90;93.10
46364;DHT22;32071;49.036;9.344;2023-05-29T00:43:30;14.90;93.10
46364;DHT22;32071;49.036;9.344;2023-05-29T00:45:56;14.90;93.00
46364;DHT22;32071;49.036;9.344;2023-05-29T00:48:22;14.90;93.20
46364;DHT22;32071;49.036;9.344;2023-05-29T00:50:48;14.80;93.40
46364;DHT22;32071;49.036;9.344;2023-05-29T00:53:13;14.80;93.40
46364;DHT22;32071;49.036;9.344;2023-05-29T00:55:39;14.70;93.60
46364;DHT22;32071;49.036;9.344;2023-05-29T00:58:05;14.70;93.40
46364;DHT22;32071;49.036;9.344;2023-05-29T01:00:31;14.70;93.40
46364;DHT22;32071;49.036;9.344;2023-05-29T01:02:58;14.70;93.60
46364;DHT22;32071;49.036;9.344;2023-05-29T01:05:24;14.60;94.30
46364;DHT22;32071;49.036;9.344;2023-05-29T01:07:49;14.50;94.20
46364;DHT22;32071;49.036;9.344;2023-05-29T01:10:16;14.50;94.40
46364;DHT22;32071;49.036;9.344;2023-05-29T01:13:08;14.40;94.70
46364;DHT22;32071;49.036;9.344;2023-05-29T01:18:18;14.30;95.10
46364;DHT22;32071;49.036;9.344;2023-05-29T01:21:18;14.20;94.70
46364;DHT22;32071;49.036;9.344;2023-05-29T01:29:07;14.10;94.70
46364;DHT22;32071;49.036;9.344;2023-05-29T01:31:34;14.10;95.30
46364;DHT22;32071;49.036;9.344;2023-05-29T01:34:00;14.00;95.60
46364;DHT22;32071;49.036;9.344;2023-05-29T01:36:27;13.90;95.70
46364;DHT22;32071;49.036;9.344;2023-05-29T01:38:54;13.90;95.80
46364;DHT22;32071;49.036;9.344;2023-05-29T01:41:22;13.80;96.50
46364;DHT22;32071;49.036;9.344;2023-05-29T01:43:49;13.70;96.60
46364;DHT22;32071;49.036;9.344;2023-05-29T01:46:16;13.50;97.30
46364;DHT22;32071;49.036;9.344;2023-05-29T01:48:42;13.30;96.80
46364;DHT22;32071;49.036;9.344;2023-05-29T01:51:09;13.20;97.50
46364;DHT22;32071;49.036;9.344;2023-05-29T01:53:39;13.10;97.60
46364;DHT22;32071;49.036;9.344;2023-05-29T01:56:06;13.00;98.30
46364;DHT22;32071;49.036;9.344;2023-05-29T01:58:36;12.90;99.00
46364;DHT22;32071;49.036;9.344;2023-05-29T02:01:02;12.80;99.30
46364;DHT22;32071;49.036;9.344;2023-05-29T02:03:32;12.70;99.80
46364;DHT22;32071;49.036;9.344;2023-05-29T02:05:58;12.60;99.80
46364;DHT22;32071;49.036;9.344;2023-05-29T02:08:24;12.50;99.70
46364;DHT22;32071;49.036;9.344;2023-05-29T02:10:50;12.60;99.90
46364;DHT22;32071;49.036;9.344;2023-05-29T02:13:16;12.50;99.90
46364;DHT22;32071;49.036;9.344;2023-05-29T02:15:43;12.40;99.90
46364;DHT22;32071;49.036;9.344;2023-05-29T02:18:11;12.30;99.90
46364;DHT22;32071;49.036;9.344;2023-05-29T02:20:40;12.20;99.90
46364;DHT22;32071;49.036;9.344;2023-05-29T02:23:08;12.10;99.90
46364;DHT22;32071;49.036;9.344;2023-05-29T02:25:34;12.10;99.90
46364;DHT22;32071;49.036;9.344;2023-05-29T02:27:59;12.00;99.90
46364;DHT22;32071;49.036;9.344;2023-05-29T02:30:25;11.80;99.90
46364;DHT22;32071;49.036;9.344;2023-05-29T02:32:51;11.70;99.90
46364;DHT22;32071;49.036;9.344;2023-05-29T02:35:16;11.70;99.90
46364;DHT22;32071;49.036;9.344;2023-05-29T02:37:46;11.60;99.90
46364;DHT22;32071;49.036;9.344;2023-05-29T02:40:11;11.50;99.90
46364;DHT22;32071;49.036;9.344;2023-05-29T02:42:37;11.40;99.90
46364;DHT22;32071;49.036;9.344;2023-05-29T02:45:02;11.40;99.90
46364;DHT22;32071;49.036;9.344;2023-05-29T02:47:29;11.30;99.90
46364;DHT22;32071;49.036;9.344;2023-05-29T02:49:55;11.30;99.90
46364;DHT22;32071;49.036;9.344;2023-05-29T02:52:20;11.20;99.90
46364;DHT22;32071;49.036;9.344;2023-05-29T02:54:46;11.10;99.90
46364;DHT22;32071;49.036;9.344;2023-05-29T02:57:12;11.00;99.90
46364;DHT22;32071;49.036;9.344;2023-05-29T02:59:37;11.00;99.90
46364;DHT22;32071;49.036;9.344;2023-05-29T03:02:03;10.90;99.90
46364;DHT22;32071;49.036;9.344;2023-05-29T03:04:29;10.90;99.90
46364;DHT22;32071;49.036;9.344;2023-05-29T03:06:54;10.90;99.90
46364;DHT22;32071;49.036;9.344;2023-05-29T03:09:20;10.90;99.90
46364;DHT22;32071;49.036;9.344;2023-05-29T03:11:46;10.70;99.90
46364;DHT22;32071;49.036;9.344;2023-05-29T03:14:15;10.70;99.90
46364;DHT22;32071;49.036;9.344;2023-05-29T03:16:40;10.70;99.90
46364;DHT22;32071;49.036;9.344;2023-05-29T03:19:07;10.70;99.90
46364;DHT22;32071;49.036;9.344;2023-05-29T03:21:33;10.60;99.90
46364;DHT22;32071;49.036;9.344;2023-05-29T03:23:59;10.60;99.90
46364;DHT22;32071;49.036;9.344;2023-05-29T03:26:25;10.50;99.90
46364;DHT22;32071;49.036;9.344;2023-05-29T03:28:51;10.50;99.90
46364;DHT22;32071;49.036;9.344;2023-05-29T03:31:16;10.40;99.90
46364;DHT22;32071;49.036;9.344;2023-05-29T03:33:42;10.40;99.90
46364;DHT22;32071;49.036;9.344;2023-05-29T03:36:08;10.30;99.90
46364;DHT22;32071;49.036;9.344;2023-05-29T03:38:33;10.30;99.90
46364;DHT22;32071;49.036;9.344;2023-05-29T03:40:59;10.20;99.90
46364;DHT22;32071;49.036;9.344;2023-05-29T03:43:25;10.20;99.90
46364;DHT22;32071;49.036;9.344;2023-05-29T03:45:50;10.20;99.90
46364;DHT22;32071;49.036;9.344;2023-05-29T03:48:16;10.20;99.90
46364;DHT22;32071;49.036;9.344;2023-05-29T03:50:42;10.20;99.90
46364;DHT22;32071;49.036;9.344;2023-05-29T03:53:07;10.20;99.90
46364;DHT22;32071;49.036;9.344;2023-05-29T03:55:33;10.10;99.90
46364;DHT22;32071;49.036;9.344;2023-05-29T03:57:58;10.10;99.90
46364;DHT22;32071;49.036;9.344;2023-05-29T04:00:24;10.10;99.90
46364;DHT22;32071;49.036;9.344;2023-05-29T04:02:49;10.10;99.90
46364;DHT22;32071;49.036;9.344;2023-05-29T04:05:15;10.10;99.90
46364;DHT22;32071;49.036;9.344;2023-05-29T04:07:41;10.10;99.90
46364;DHT22;32071;49.036;9.344;2023-05-29T04:10:07;10.10;99.90
46364;DHT22;32071;49.036;9.344;2023-05-29T04:12:33;10.10;99.90
46364;DHT22;32071;49.036;9.344;2023-05-29T04:14:59;10.20;99.90
46364;DHT22;32071;49.036;9.344;2023-05-29T04:17:25;10.20;99.90
46364;DHT22;32071;49.036;9.344;2023-05-29T04:19:51;10.20;99.90
46364;DHT22;32071;49.036;9.344;2023-05-29T04:22:17;10.30;99.90
46364;DHT22;32071;49.036;9.344;2023-05-29T04:24:42;10.30;99.90
46364;DHT22;32071;49.036;9.344;2023-05-29T04:27:11;10.40;99.90
46364;DHT22;32071;49.036;9.344;2023-05-29T04:29:39;10.50;99.90
46364;DHT22;32071;49.036;9.344;2023-05-29T04:32:06;10.50;99.90
46364;DHT22;32071;49.036;9.344;2023-05-29T04:34:31;10.60;99.90
46364;DHT22;32071;49.036;9.344;2023-05-29T04:36:57;10.70;99.90
46364;DHT22;32071;49.036;9.344;2023-05-29T04:39:24;10.70;99.90
46364;DHT22;32071;49.036;9.344;2023-05-29T04:41:50;10.80;99.90
46364;DHT22;32071;49.036;9.344;2023-05-29T04:44:17;10.80;99.90
46364;DHT22;32071;49.036;9.344;2023-05-29T04:46:43;11.00;99.90
46364;DHT22;32071;49.036;9.344;2023-05-29T04:49:10;11.00;99.90
46364;DHT22;32071;49.036;9.344;2023-05-29T04:51:35;11.10;99.90
46364;DHT22;32071;49.036;9.344;2023-05-29T04:54:02;11.20;99.90
46364;DHT22;32071;49.036;9.344;2023-05-29T04:56:28;11.30;99.90
46364;DHT22;32071;49.036;9.344;2023-05-29T04:58:54;11.40;99.90
46364;DHT22;32071;49.036;9.344;2023-05-29T05:01:20;11.50;99.90
46364;DHT22;32071;49.036;9.344;2023-05-29T05:03:47;11.50;99.90
46364;DHT22;32071;49.036;9.344;2023-05-29T05:06:12;11.60;99.90
46364;DHT22;32071;49.036;9.344;2023-05-29T05:08:38;11.70;99.90
46364;DHT22;32071;49.036;9.344;2023-05-29T05:11:04;11.80;99.90
46364;DHT22;32071;49.036;9.344;2023-05-29T05:13:31;11.90;99.90
46364;DHT22;32071;49.036;9.344;2023-05-29T05:15:57;12.00;99.90
46364;DHT22;32071;49.036;9.344;2023-05-29T05:18:22;12.20;99.90
46364;DHT22;32071;49.036;9.344;2023-05-29T05:20:48;12.30;99.90
46364;DHT22;32071;49.036;9.344;2023-05-29T05:23:13;12.40;99.90
46364;DHT22;32071;49.036;9.344;2023-05-29T05:25:39;12.50;99.90
46364;DHT22;32071;49.036;9.344;2023-05-29T05:28:05;12.60;99.90
46364;DHT22;32071;49.036;9.344;2023-05-29T05:30:31;12.70;99.90
46364;DHT22;32071;49.036;9.344;2023-05-29T05:32:57;12.80;99.90
46364;DHT22;32071;49.036;9.344;2023-05-29T05:35:23;12.90;99.90
46364;DHT22;32071;49.036;9.344;2023-05-29T05:37:48;13.00;99.90
46364;DHT22;32071;49.036;9.344;2023-05-29T05:40:14;13.20;99.90
46364;DHT22;32071;49.036;9.344;2023-05-29T05:42:40;13.20;99.90
46364;DHT22;32071;49.036;9.344;2023-05-29T05:45:06;13.30;99.90
46364;DHT22;32071;49.036;9.344;2023-05-29T05:47:32;13.40;99.90
46364;DHT22;32071;49.036;9.344;2023-05-29T05:49:58;13.50;99.90
46364;DHT22;32071;49.036;9.344;2023-05-29T05:52:24;13.60;99.90
46364;DHT22;32071;49.036;9.344;2023-05-29T05:54:51;13.70;99.90
46364;DHT22;32071;49.036;9.344;2023-05-29T05:57:16;13.80;99.90
46364;DHT22;32071;49.036;9.344;2023-05-29T05:59:42;13.90;99.90
46364;DHT22;32071;49.036;9.344;2023-05-29T06:02:07;14.00;99.90
46364;DHT22;32071;49.036;9.344;2023-05-29T06:04:33;14.20;99.90
46364;DHT22;32071;49.036;9.344;2023-05-29T06:06:58;14.30;99.90
46364;DHT22;32071;49.036;9.344;2023-05-29T06:09:24;14.30;99.90
46364;DHT22;32071;49.036;9.344;2023-05-29T06:11:51;14.50;99.90
46364;DHT22;32071;49.036;9.344;2023-05-29T06:14:16;14.50;99.90
46364;DHT22;32071;49.036;9.344;2023-05-29T06:16:42;14.70;99.90
46364;DHT22;32071;49.036;9.344;2023-05-29T06:19:08;14.70;99.90
46364;DHT22;32071;49.036;9.344;2023-05-29T06:21:34;14.90;99.90
46364;DHT22;32071;49.036;9.344;2023-05-29T06:24:00;14.90;99.90
46364;DHT22;32071;49.036;9.344;2023-05-29T06:26:26;15.10;99.90
46364;DHT22;32071;49.036;9.344;2023-05-29T06:28:52;15.20;99.90
46364;DHT22;32071;49.036;9.344;2023-05-29T06:31:18;15.30;99.90
46364;DHT22;32071;49.036;9.344;2023-05-29T06:33:44;15.40;99.90
46364;DHT22;32071;49.036;9.344;2023-05-29T06:36:10;15.60;99.90
46364;DHT22;32071;49.036;9.344;2023-05-29T06:38:36;15.80;99.90
46364;DHT22;32071;49.036;9.344;2023-05-29T06:41:02;15.90;99.90
46364;DHT22;32071;49.036;9.344;2023-05-29T06:43:28;16.10;99.90
46364;DHT22;32071;49.036;9.344;2023-05-29T06:45:54;16.20;99.90
46364;DHT22;32071;49.036;9.344;2023-05-29T06:48:20;16.30;99.90
46364;DHT22;32071;49.036;9.344;2023-05-29T06:50:46;16.40;99.90
46364;DHT22;32071;49.036;9.344;2023-05-29T06:53:12;16.60;99.90
46364;DHT22;32071;49.036;9.344;2023-05-29T06:55:38;16.60;99.90
46364;DHT22;32071;49.036;9.344;2023-05-29T06:58:06;16.80;99.90
46364;DHT22;32071;49.036;9.344;2023-05-29T07:00:31;16.90;99.90
46364;DHT22;32071;49.036;9.344;2023-05-29T07:02:57;17.10;99.90
46364;DHT22;32071;49.036;9.344;2023-05-29T07:05:22;17.20;99.90
46364;DHT22;32071;49.036;9.344;2023-05-29T07:07:49;17.30;99.90
46364;DHT22;32071;49.036;9.344;2023-05-29T07:10:14;17.30;99.90
46364;DHT22;32071;49.036;9.344;2023-05-29T07:12:40;17.30;99.90
46364;DHT22;32071;49.036;9.344;2023-05-29T07:15:06;17.40;99.90
46364;DHT22;32071;49.036;9.344;2023-05-29T07:17:31;17.50;99.90
46364;DHT22;32071;49.036;9.344;2023-05-29T07:19:57;17.60;99.90
46364;DHT22;32071;49.036;9.344;2023-05-29T07:22:22;17.60;99.90
46364;DHT22;32071;49.036;9.344;2023-05-29T07:24:48;17.70;99.90
46364;DHT22;32071;49.036;9.344;2023-05-29T07:27:13;17.80;99.90
46364;DHT22;32071;49.036;9.344;2023-05-29T07:29:39;17.80;99.90
46364;DHT22;32071;49.036;9.344;2023-05-29T07:32:05;17.90;99.90
46364;DHT22;32071;49.036;9.344;2023-05-29T07:34:30;18.00;99.90
46364;DHT22;32071;49.036;9.344;2023-05-29T07:37:06;18.20;99.90
46364;DHT22;32071;49.036;9.344;2023-05-29T07:39:34;18.30;99.90
46364;DHT22;32071;49.036;9.344;2023-05-29T07:42:01;18.40;99.90
46364;DHT22;32071;49.036;9.344;2023-05-29T07:44:27;18.50;99.90
46364;DHT22;32071;49.036;9.344;2023-05-29T07:46:52;18.60;99.90
46364;DHT22;32071;49.036;9.344;2023-05-29T07:49:19;18.70;99.90
46364;DHT22;32071;49.036;9.344;2023-05-29T07:51:45;18.90;99.90
46364;DHT22;32071;49.036;9.344;2023-05-29T07:54:10;19.00;99.90
46364;DHT22;32071;49.036;9.344;2023-05-29T07:56:36;19.10;99.70
46364;DHT22;32071;49.036;9.344;2023-05-29T07:59:02;19.10;99.30
46364;DHT22;32071;49.036;9.344;2023-05-29T08:01:29;19.30;99.30
46364;DHT22;32071;49.036;9.344;2023-05-29T08:03:55;19.30;99.60
46364;DHT22;32071;49.036;9.344;2023-05-29T08:06:20;19.40;99.40
46364;DHT22;32071;49.036;9.344;2023-05-29T08:08:46;19.50;98.50
46364;DHT22;32071;49.036;9.344;2023-05-29T08:11:13;19.50;99.60
46364;DHT22;32071;49.036;9.344;2023-05-29T08:13:38;19.60;98.30
46364;DHT22;32071;49.036;9.344;2023-05-29T08:16:04;19.70;97.80
46364;DHT22;32071;49.036;9.344;2023-05-29T08:18:31;19.80;97.70
46364;DHT22;32071;49.036;9.344;2023-05-29T08:20:57;20.10;97.30
46364;DHT22;32071;49.036;9.344;2023-05-29T08:23:23;20.30;97.90
46364;DHT22;32071;49.036;9.344;2023-05-29T08:25:48;20.50;95.20
46364;DHT22;32071;49.036;9.344;2023-05-29T08:28:14;20.80;93.20
46364;DHT22;32071;49.036;9.344;2023-05-29T08:30:42;20.90;93.90
46364;DHT22;32071;49.036;9.344;2023-05-29T08:33:07;21.00;93.90
46364;DHT22;32071;49.036;9.344;2023-05-29T08:35:33;21.20;93.50
46364;DHT22;32071;49.036;9.344;2023-05-29T08:37:59;21.30;93.40
46364;DHT22;32071;49.036;9.344;2023-05-29T08:40:25;21.40;91.90
46364;DHT22;32071;49.036;9.344;2023-05-29T08:42:59;21.50;92.50
46364;DHT22;32071;49.036;9.344;2023-05-29T08:45:29;21.60;91.50
46364;DHT22;32071;49.036;9.344;2023-05-29T08:47:55;21.70;91.80
46364;DHT22;32071;49.036;9.344;2023-05-29T08:50:24;21.70;91.20
46364;DHT22;32071;49.036;9.344;2023-05-29T08:52:51;21.80;90.60
46364;DHT22;32071;49.036;9.344;2023-05-29T08:55:17;21.90;90.70
46364;DHT22;32071;49.036;9.344;2023-05-29T08:57:42;22.00;90.10
46364;DHT22;32071;49.036;9.344;2023-05-29T09:00:11;22.00;87.60
46364;DHT22;32071;49.036;9.344;2023-05-29T09:02:41;22.10;87.60
46364;DHT22;32071;49.036;9.344;2023-05-29T09:05:09;22.20;86.80
46364;DHT22;32071;49.036;9.344;2023-05-29T09:07:35;22.20;89.10
46364;DHT22;32071;49.036;9.344;2023-05-29T09:10:05;22.30;90.10
46364;DHT22;32071;49.036;9.344;2023-05-29T09:12:32;22.40;90.40
46364;DHT22;32071;49.036;9.344;2023-05-29T09:14:57;22.50;89.70
46364;DHT22;32071;49.036;9.344;2023-05-29T09:17:23;22.70;88.10
46364;DHT22;32071;49.036;9.344;2023-05-29T09:19:50;22.80;88.70
46364;DHT22;32071;49.036;9.344;2023-05-29T09:22:15;22.80;86.50
46364;DHT22;32071;49.036;9.344;2023-05-29T09:24:43;22.70;81.80
46364;DHT22;32071;49.036;9.344;2023-05-29T09:27:11;22.70;82.50
46364;DHT22;32071;49.036;9.344;2023-05-29T09:29:45;22.60;85.60
46364;DHT22;32071;49.036;9.344;2023-05-29T09:32:18;22.70;82.60
46364;DHT22;32071;49.036;9.344;2023-05-29T09:34:44;22.70;83.80
46364;DHT22;32071;49.036;9.344;2023-05-29T09:37:11;22.80;85.80
46364;DHT22;32071;49.036;9.344;2023-05-29T09:39:49;22.80;82.60
46364;DHT22;32071;49.036;9.344;2023-05-29T09:42:16;22.80;84.40
46364;DHT22;32071;49.036;9.344;2023-05-29T09:44:44;23.00;85.60
46364;DHT22;32071;49.036;9.344;2023-05-29T09:47:16;23.10;86.20
46364;DHT22;32071;49.036;9.344;2023-05-29T09:49:42;23.20;85.10
46364;DHT22;32071;49.036;9.344;2023-05-29T09:52:13;23.30;84.00
46364;DHT22;32071;49.036;9.344;2023-05-29T09:54:43;23.40;82.50
46364;DHT22;32071;49.036;9.344;2023-05-29T09:57:13;23.40;84.30
46364;DHT22;32071;49.036;9.344;2023-05-29T09:59:41;23.50;81.10
46364;DHT22;32071;49.036;9.344;2023-05-29T10:02:09;23.60;82.80
46364;DHT22;32071;49.036;9.344;2023-05-29T10:04:37;23.60;79.30
46364;DHT22;32071;49.036;9.344;2023-05-29T10:07:20;23.50;81.70
46364;DHT22;32071;49.036;9.344;2023-05-29T10:09:53;23.70;82.00
46364;DHT22;32071;49.036;9.344;2023-05-29T10:12:21;23.80;83.90
46364;DHT22;32071;49.036;9.344;2023-05-29T10:14:49;24.00;82.00
46364;DHT22;32071;49.036;9.344;2023-05-29T10:17:16;24.10;79.80
46364;DHT22;32071;49.036;9.344;2023-05-29T10:19:44;24.10;81.10
46364;DHT22;32071;49.036;9.344;2023-05-29T10:22:11;24.20;80.20
46364;DHT22;32071;49.036;9.344;2023-05-29T10:24:37;24.30;78.70
46364;DHT22;32071;49.036;9.344;2023-05-29T10:27:04;24.30;78.20
46364;DHT22;32071;49.036;9.344;2023-05-29T10:29:37;24.30;78.10
46364;DHT22;32071;49.036;9.344;2023-05-29T10:37:21;24.60;80.00
46364;DHT22;32071;49.036;9.344;2023-05-29T10:40:03;24.70;76.70
46364;DHT22;32071;49.036;9.344;2023-05-29T10:42:43;24.80;77.10
46364;DHT22;32071;49.036;9.344;2023-05-29T10:45:10;24.80;75.60
46364;DHT22;32071;49.036;9.344;2023-05-29T10:47:39;25.00;74.70
46364;DHT22;32071;49.036;9.344;2023-05-29T10:50:05;25.10;73.10
46364;DHT22;32071;49.036;9.344;2023-05-29T10:52:34;25.20;76.90
46364;DHT22;32071;49.036;9.344;2023-05-29T10:55:01;25.30;75.30
46364;DHT22;32071;49.036;9.344;2023-05-29T10:57:29;25.30;72.30
46364;DHT22;32071;49.036;9.344;2023-05-29T11:00:07;25.30;70.40
46364;DHT22;32071;49.036;9.344;2023-05-29T11:02:38;25.20;71.40
46364;DHT22;32071;49.036;9.344;2023-05-29T11:05:21;25.10;70.20
46364;DHT22;32071;49.036;9.344;2023-05-29T11:08:02;25.10;70.30
46364;DHT22;32071;49.036;9.344;2023-05-29T11:13:25;25.40;73.90
46364;DHT22;32071;49.036;9.344;2023-05-29T11:18:41;25.20;68.20
46364;DHT22;32071;49.036;9.344;2023-05-29T11:24:02;25.30;66.70
46364;DHT22;32071;49.036;9.344;2023-05-29T11:26:29;25.50;68.90
46364;DHT22;32071;49.036;9.344;2023-05-29T11:28:59;25.60;65.10
46364;DHT22;32071;49.036;9.344;2023-05-29T11:31:27;25.70;67.80
46364;DHT22;32071;49.036;9.344;2023-05-29T11:33:54;25.60;66.80
46364;DHT22;32071;49.036;9.344;2023-05-29T11:36:25;25.60;63.80
46364;DHT22;32071;49.036;9.344;2023-05-29T11:38:51;25.50;64.80
46364;DHT22;32071;49.036;9.344;2023-05-29T11:41:17;25.60;63.80
46364;DHT22;32071;49.036;9.344;2023-05-29T11:43:43;25.60;62.70
46364;DHT22;32071;49.036;9.344;2023-05-29T11:46:19;25.70;64.50
46364;DHT22;32071;49.036;9.344;2023-05-29T11:48:46;25.70;60.70
46364;DHT22;32071;49.036;9.344;2023-05-29T11:51:12;25.60;64.30
46364;DHT22;32071;49.036;9.344;2023-05-29T11:53:40;25.60;62.40
46364;DHT22;32071;49.036;9.344;2023-05-29T11:56:08;25.60;63.10
46364;DHT22;32071;49.036;9.344;2023-05-29T11:58:36;25.90;63.70
46364;DHT22;32071;49.036;9.344;2023-05-29T12:01:03;26.10;64.80
46364;DHT22;32071;49.036;9.344;2023-05-29T12:03:28;26.60;64.70
46364;DHT22;32071;49.036;9.344;2023-05-29T12:05:54;27.10;62.80
46364;DHT22;32071;49.036;9.344;2023-05-29T12:08:24;27.60;64.30
46364;DHT22;32071;49.036;9.344;2023-05-29T12:10:51;27.80;57.70
46364;DHT22;32071;49.036;9.344;2023-05-29T12:13:21;27.80;58.40
46364;DHT22;32071;49.036;9.344;2023-05-29T12:15:53;28.00;59.00
46364;DHT22;32071;49.036;9.344;2023-05-29T12:18:19;28.30;58.60
46364;DHT22;32071;49.036;9.344;2023-05-29T12:20:44;28.30;54.50
46364;DHT22;32071;49.036;9.344;2023-05-29T12:23:10;27.70;56.40
46364;DHT22;32071;49.036;9.344;2023-05-29T12:25:37;28.20;56.90
46364;DHT22;32071;49.036;9.344;2023-05-29T12:28:03;28.80;54.90
46364;DHT22;32071;49.036;9.344;2023-05-29T12:30:29;28.60;54.40
46364;DHT22;32071;49.036;9.344;2023-05-29T12:32:54;28.70;55.80
46364;DHT22;32071;49.036;9.344;2023-05-29T12:35:22;29.30;52.30
46364;DHT22;32071;49.036;9.344;2023-05-29T12:37:58;29.90;50.40
46364;DHT22;32071;49.036;9.344;2023-05-29T12:40:25;30.00;52.20
46364;DHT22;32071;49.036;9.344;2023-05-29T12:43:01;29.90;53.30
46364;DHT22;32071;49.036;9.344;2023-05-29T12:45:32;30.50;52.80
46364;DHT22;32071;49.036;9.344;2023-05-29T12:48:00;30.60;48.50
46364;DHT22;32071;49.036;9.344;2023-05-29T12:53:01;30.70;50.90
46364;DHT22;32071;49.036;9.344;2023-05-29T12:55:32;31.00;49.20
46364;DHT22;32071;49.036;9.344;2023-05-29T12:58:15;31.30;47.60
46364;DHT22;32071;49.036;9.344;2023-05-29T13:00:45;31.70;46.80
46364;DHT22;32071;49.036;9.344;2023-05-29T13:03:11;30.70;47.50
46364;DHT22;32071;49.036;9.344;2023-05-29T13:05:37;30.40;49.50
46364;DHT22;32071;49.036;9.344;2023-05-29T13:08:03;30.50;48.20
46364;DHT22;32071;49.036;9.344;2023-05-29T13:10:32;30.20;50.50
46364;DHT22;32071;49.036;9.344;2023-05-29T13:12:59;30.60;50.00
46364;DHT22;32071;49.036;9.344;2023-05-29T13:15:25;31.10;48.90
46364;DHT22;32071;49.036;9.344;2023-05-29T13:17:54;31.00;46.90
46364;DHT22;32071;49.036;9.344;2023-05-29T13:20:20;31.10;45.90
46364;DHT22;32071;49.036;9.344;2023-05-29T13:22:48;30.70;47.30
46364;DHT22;32071;49.036;9.344;2023-05-29T13:25:15;30.80;48.00
46364;DHT22;32071;49.036;9.344;2023-05-29T13:27:43;31.50;47.90
46364;DHT22;32071;49.036;9.344;2023-05-29T13:30:09;31.30;47.80
46364;DHT22;32071;49.036;9.344;2023-05-29T13:32:36;31.80;49.00
46364;DHT22;32071;49.036;9.344;2023-05-29T13:35:02;32.10;47.10
46364;DHT22;32071;49.036;9.344;2023-05-29T13:37:28;32.70;47.40
46364;DHT22;32071;49.036;9.344;2023-05-29T13:39:54;32.90;43.70
46364;DHT22;32071;49.036;9.344;2023-05-29T13:42:20;32.30;44.20
46364;DHT22;32071;49.036;9.344;2023-05-29T13:44:47;31.50;44.30
46364;DHT22;32071;49.036;9.344;2023-05-29T13:47:13;30.90;48.00
46364;DHT22;32071;49.036;9.344;2023-05-29T13:49:38;31.40;47.00
46364;DHT22;32071;49.036;9.344;2023-05-29T13:52:04;31.80;48.10
46364;DHT22;32071;49.036;9.344;2023-05-29T13:54:30;33.00;45.60
46364;DHT22;32071;49.036;9.344;2023-05-29T13:56:58;32.70;43.20
46364;DHT22;32071;49.036;9.344;2023-05-29T13:59:24;32.30;43.90
46364;DHT22;32071;49.036;9.344;2023-05-29T14:01:50;32.50;43.60
46364;DHT22;32071;49.036;9.344;2023-05-29T14:04:16;32.90;43.10
46364;DHT22;32071;49.036;9.344;2023-05-29T14:06:42;32.40;45.30
46364;DHT22;32071;49.036;9.344;2023-05-29T14:09:07;33.30;43.50
46364;DHT22;32071;49.036;9.344;2023-05-29T14:11:36;34.20;42.00
46364;DHT22;32071;49.036;9.344;2023-05-29T14:14:05;33.10;42.90
46364;DHT22;32071;49.036;9.344;2023-05-29T14:16:32;32.70;45.40
46364;DHT22;32071;49.036;9.344;2023-05-29T14:18:58;33.40;45.20
46364;DHT22;32071;49.036;9.344;2023-05-29T14:21:24;34.60;41.80
46364;DHT22;32071;49.036;9.344;2023-05-29T14:23:50;35.80;40.10
46364;DHT22;32071;49.036;9.344;2023-05-29T14:26:15;36.90;41.00
46364;DHT22;32071;49.036;9.344;2023-05-29T14:28:41;36.80;41.20
46364;DHT22;32071;49.036;9.344;2023-05-29T14:31:07;36.10;38.50
46364;DHT22;32071;49.036;9.344;2023-05-29T14:33:33;34.30;39.20
46364;DHT22;32071;49.036;9.344;2023-05-29T14:35:58;33.30;42.70
46364;DHT22;32071;49.036;9.344;2023-05-29T14:38:24;34.60;42.10
46364;DHT22;32071;49.036;9.344;2023-05-29T14:40:50;35.00;40.20
46364;DHT22;32071;49.036;9.344;2023-05-29T14:43:16;33.80;40.80
46364;DHT22;32071;49.036;9.344;2023-05-29T14:45:41;34.10;42.40
46364;DHT22;32071;49.036;9.344;2023-05-29T14:48:07;35.30;40.30
46364;DHT22;32071;49.036;9.344;2023-05-29T14:50:33;35.70;40.00
46364;DHT22;32071;49.036;9.344;2023-05-29T14:52:58;36.50;41.00
46364;DHT22;32071;49.036;9.344;2023-05-29T14:55:24;36.40;38.00
46364;DHT22;32071;49.036;9.344;2023-05-29T14:57:49;36.80;39.20
46364;DHT22;32071;49.036;9.344;2023-05-29T15:00:15;37.10;39.70
46364;DHT22;32071;49.036;9.344;2023-05-29T15:02:41;37.80;38.60
46364;DHT22;32071;49.036;9.344;2023-05-29T15:05:07;38.60;36.20
46364;DHT22;32071;49.036;9.344;2023-05-29T15:07:33;38.60;35.40
46364;DHT22;32071;49.036;9.344;2023-05-29T15:10:02;37.90;35.20
46364;DHT22;32071;49.036;9.344;2023-05-29T15:12:29;36.90;34.60
46364;DHT22;32071;49.036;9.344;2023-05-29T15:14:55;36.50;37.70
46364;DHT22;32071;49.036;9.344;2023-05-29T15:17:20;36.30;37.00
46364;DHT22;32071;49.036;9.344;2023-05-29T15:19:46;37.10;35.20
46364;DHT22;32071;49.036;9.344;2023-05-29T15:22:12;35.10;37.30
46364;DHT22;32071;49.036;9.344;2023-05-29T15:24:37;35.20;38.30
46364;DHT22;32071;49.036;9.344;2023-05-29T15:27:03;34.80;39.40
46364;DHT22;32071;49.036;9.344;2023-05-29T15:29:35;34.80;39.60
46364;DHT22;32071;49.036;9.344;2023-05-29T15:32:02;36.00;37.80
46364;DHT22;32071;49.036;9.344;2023-05-29T15:34:29;35.10;38.70
46364;DHT22;32071;49.036;9.344;2023-05-29T15:36:55;35.30;39.80
46364;DHT22;32071;49.036;9.344;2023-05-29T15:39:21;36.80;38.80
46364;DHT22;32071;49.036;9.344;2023-05-29T15:41:47;36.00;37.60
46364;DHT22;32071;49.036;9.344;2023-05-29T15:44:12;35.70;38.90
46364;DHT22;32071;49.036;9.344;2023-05-29T15:46:38;36.80;37.60
46364;DHT22;32071;49.036;9.344;2023-05-29T15:49:03;36.50;38.60
46364;DHT22;32071;49.036;9.344;2023-05-29T15:51:29;37.10;37.60
46364;DHT22;32071;49.036;9.344;2023-05-29T15:53:55;35.40;38.00